Time;durP1;ratioP1;P1;durP2;ratioP2;P2;SDS_P1;SDS_P2;PMS_P1;PMS_P2;Temp;Humidity;BMP_temperature;BMP_pressure;BME280_temperature;BME280_humidity;BME280_pressure;Samples;Min_cycle;Max_cycle;Signal;HPM_P1;HPM_P2
2022/05/14 00:01:09;;;;;;;4.38;1.67;;;;;;;;;;5068489;28;20023;-73
2022/05/14 00:03:35;;;;;;;5.13;1.65;;;;;;;;;;5069108;28;20044;-73
2022/05/14 00:06:07;;;;;;;3.42;1.50;;;;;;;;;;5067822;28;20115;-72
2022/05/14 00:08:33;;;;;;;2.70;1.25;;;;;;;;;;5067683;28;20031;-73
2022/05/14 00:13:44;;;;;;;2.80;1.42;;;;;;;;;;5062426;28;20081;-72
2022/05/14 00:16:10;;;;;;;3.60;1.40;;;;;;;;;;5068856;28;20116;-72
2022/05/14 00:18:36;;;;;;;4.70;1.80;;;;;;;;;;5067786;28;20032;-73
2022/05/14 00:21:02;;;;;;;5.93;1.50;;;;;;;;;;5066819;28;20028;-72
2022/05/14 00:23:27;;;;;;;2.40;1.35;;;;;;;;;;5067925;28;20028;-72
2022/05/14 00:25:53;;;;;;;2.47;1.30;;;;;;;;;;5067372;28;20074;-73
2022/05/14 00:28:18;;;;;;;4.97;2.20;;;;;;;;;;5065299;28;20086;-72
2022/05/14 00:30:44;;;;;;;3.63;1.58;;;;;;;;;;5065961;28;20032;-73
2022/05/14 00:33:10;;;;;;;2.50;1.58;;;;;;;;;;5066859;28;20028;-73
2022/05/14 00:35:36;;;;;;;2.47;1.52;;;;;;;;;;5065021;28;20075;-73
2022/05/14 00:38:01;;;;;;;2.92;1.50;;;;;;;;;;5058203;28;20041;-73
2022/05/14 00:40:32;;;;;;;1.92;1.35;;;;;;;;;;5057721;28;20149;-73
2022/05/14 00:42:59;;;;;;;6.03;1.60;;;;;;;;;;5062770;28;20474;-73
2022/05/14 00:45:25;;;;;;;3.28;1.58;;;;;;;;;;5056173;28;20075;-72
2022/05/14 00:47:53;;;;;;;1.80;1.23;;;;;;;;;;5058868;28;20021;-73
2022/05/14 00:50:38;;;;;;;2.65;1.50;;;;;;;;;;5058104;28;20032;-73
2022/05/14 00:53:17;;;;;;;2.92;1.45;;;;;;;;;;5054779;28;20031;-73
2022/05/14 00:55:44;;;;;;;2.20;1.45;;;;;;;;;;5061996;28;20031;-73
2022/05/14 00:58:16;;;;;;;2.45;1.38;;;;;;;;;;5060045;28;20376;-72
2022/05/14 01:00:41;;;;;;;3.08;1.33;;;;;;;;;;5061835;28;20032;-73
2022/05/14 01:03:07;;;;;;;1.80;1.33;;;;;;;;;;5059891;28;20085;-72
2022/05/14 01:05:32;;;;;;;2.25;1.70;;;;;;;;;;5061101;28;20712;-72
2022/05/14 01:08:01;;;;;;;2.88;1.33;;;;;;;;;;5056638;28;20240;-72
2022/05/14 01:10:36;;;;;;;1.48;1.17;;;;;;;;;;5054561;28;20025;-72
2022/05/14 01:13:02;;;;;;;2.63;1.55;;;;;;;;;;5061084;28;20108;-73
2022/05/14 01:15:48;;;;;;;2.25;1.40;;;;;;;;;;5055331;28;20121;-72
2022/05/14 01:18:13;;;;;;;1.98;1.30;;;;;;;;;;5058103;28;20298;-72
2022/05/14 01:20:39;;;;;;;4.50;1.48;;;;;;;;;;5054713;28;20028;-72
2022/05/14 01:26:27;;;;;;;3.88;1.67;;;;;;;;;;5054820;28;20032;-72
2022/05/14 01:26:29;;;;;;;3.28;1.77;;;;;;;;;;5063518;28;20055;-72
2022/05/14 01:29:13;;;;;;;1.65;1.38;;;;;;;;;;5066150;28;20434;-72
2022/05/14 01:31:40;;;;;;;4.38;1.65;;;;;;;;;;5064617;28;20107;-72
2022/05/14 01:34:11;;;;;;;5.47;1.42;;;;;;;;;;5057041;28;20032;-72
2022/05/14 01:36:39;;;;;;;2.78;1.42;;;;;;;;;;5057213;28;20112;-73
2022/05/14 01:39:06;;;;;;;2.55;1.40;;;;;;;;;;5059235;28;20028;-72
2022/05/14 01:41:31;;;;;;;4.00;1.50;;;;;;;;;;5061679;28;20804;-72
2022/05/14 01:43:57;;;;;;;1.90;1.48;;;;;;;;;;5061308;28;20040;-72
2022/05/14 01:46:22;;;;;;;3.50;1.60;;;;;;;;;;5060428;28;20051;-72
2022/05/14 01:48:48;;;;;;;2.95;1.70;;;;;;;;;;5060471;28;20036;-72
2022/05/14 01:51:15;;;;;;;3.60;1.63;;;;;;;;;;5056132;28;20033;-72
2022/05/14 01:53:40;;;;;;;2.38;1.30;;;;;;;;;;5057655;28;20486;-72
2022/05/14 01:56:07;;;;;;;4.13;1.60;;;;;;;;;;5059382;28;20032;-74
2022/05/14 01:58:38;;;;;;;3.20;1.30;;;;;;;;;;5061152;28;20043;-72
2022/05/14 02:01:26;;;;;;;2.88;1.50;;;;;;;;;;5057697;28;20497;-72
2022/05/14 02:03:56;;;;;;;2.05;1.50;;;;;;;;;;5058023;28;20037;-72
2022/05/14 02:06:22;;;;;;;3.22;1.52;;;;;;;;;;5056735;28;20028;-72
2022/05/14 02:08:48;;;;;;;2.67;1.60;;;;;;;;;;5057269;28;20117;-72
2022/05/14 02:11:14;;;;;;;2.97;1.90;;;;;;;;;;5058599;28;20461;-72
2022/05/14 02:13:41;;;;;;;2.72;1.50;;;;;;;;;;5063517;28;20524;-73
2022/05/14 02:16:07;;;;;;;3.10;1.52;;;;;;;;;;5058625;28;20032;-73
2022/05/14 02:18:32;;;;;;;2.25;1.50;;;;;;;;;;5060272;28;20092;-73
2022/05/14 02:23:39;;;;;;;2.30;1.52;;;;;;;;;;5035474;28;20046;-73
2022/05/14 02:26:08;;;;;;;5.28;2.17;;;;;;;;;;5038301;28;20037;-73
2022/05/14 02:28:33;;;;;;;2.53;1.70;;;;;;;;;;5045404;28;20021;-73
2022/05/14 02:30:58;;;;;;;4.72;1.75;;;;;;;;;;5035455;28;20087;-73
2022/05/14 02:33:24;;;;;;;2.38;1.80;;;;;;;;;;5029686;28;20033;-73
2022/05/14 02:35:49;;;;;;;4.25;2.38;;;;;;;;;;5029903;28;20022;-73
2022/05/14 02:38:15;;;;;;;3.63;2.10;;;;;;;;;;5030216;28;20478;-73
2022/05/14 02:40:42;;;;;;;3.45;1.52;;;;;;;;;;5030601;28;20028;-73
2022/05/14 02:43:08;;;;;;;2.15;1.40;;;;;;;;;;5029642;28;20104;-73
2022/05/14 02:45:33;;;;;;;3.95;2.17;;;;;;;;;;5029261;28;20538;-73
2022/05/14 02:47:59;;;;;;;3.47;1.77;;;;;;;;;;5028451;28;20025;-73
2022/05/14 02:50:24;;;;;;;2.40;2.20;;;;;;;;;;5030375;28;20033;-73
2022/05/14 02:52:50;;;;;;;5.65;2.42;;;;;;;;;;5029190;28;20029;-73
2022/05/14 02:55:16;;;;;;;4.68;2.00;;;;;;;;;;5030388;28;20368;-73
2022/05/14 02:57:41;;;;;;;1.90;1.67;;;;;;;;;;5027755;28;20055;-73
2022/05/14 03:00:12;;;;;;;2.97;1.70;;;;;;;;;;5029954;28;20029;-73
2022/05/14 03:02:37;;;;;;;2.70;1.65;;;;;;;;;;5029892;28;20071;-73
2022/05/14 03:05:04;;;;;;;2.42;1.80;;;;;;;;;;5029632;28;20057;-73
2022/05/14 03:07:29;;;;;;;3.28;1.77;;;;;;;;;;5028138;28;20437;-73
2022/05/14 03:09:55;;;;;;;1.80;1.70;;;;;;;;;;5028733;28;20026;-73
2022/05/14 03:12:22;;;;;;;6.97;1.80;;;;;;;;;;5029858;28;20029;-74
2022/05/14 03:14:48;;;;;;;3.05;1.90;;;;;;;;;;5029965;28;20109;-73
2022/05/14 03:17:14;;;;;;;3.13;1.90;;;;;;;;;;5027724;28;20021;-73
2022/05/14 03:19:40;;;;;;;4.13;2.00;;;;;;;;;;5028226;28;20021;-73
2022/05/14 03:22:05;;;;;;;3.60;1.92;;;;;;;;;;5029319;28;20021;-73
2022/05/14 03:24:32;;;;;;;2.67;1.90;;;;;;;;;;5029618;28;20033;-73
2022/05/14 03:26:57;;;;;;;3.15;1.73;;;;;;;;;;5028551;28;20075;-73
2022/05/14 03:29:22;;;;;;;3.65;1.98;;;;;;;;;;5026632;28;20496;-73
2022/05/14 03:31:48;;;;;;;2.53;2.10;;;;;;;;;;5028612;28;20029;-73
2022/05/14 03:34:14;;;;;;;4.38;2.08;;;;;;;;;;5028993;28;20051;-73
2022/05/14 03:36:40;;;;;;;3.53;2.17;;;;;;;;;;5027564;28;20025;-73
2022/05/14 03:39:06;;;;;;;3.00;1.98;;;;;;;;;;5028315;28;20422;-73
2022/05/14 03:41:33;;;;;;;2.75;1.80;;;;;;;;;;5028303;28;20025;-73
2022/05/14 03:43:58;;;;;;;5.03;1.88;;;;;;;;;;5029326;28;20060;-73
2022/05/14 03:46:23;;;;;;;2.17;1.90;;;;;;;;;;5028171;28;20056;-73
2022/05/14 03:48:49;;;;;;;4.55;2.00;;;;;;;;;;5025281;28;20391;-73
2022/05/14 03:51:15;;;;;;;4.68;1.90;;;;;;;;;;5028936;28;20026;-73
2022/05/14 03:53:40;;;;;;;2.75;1.80;;;;;;;;;;5027284;28;20467;-73
2022/05/14 03:56:06;;;;;;;1.92;1.58;;;;;;;;;;5020245;28;20029;-73
2022/05/14 03:58:32;;;;;;;1.88;1.70;;;;;;;;;;5026534;28;20100;-74
2022/05/14 04:00:58;;;;;;;3.25;1.67;;;;;;;;;;5034098;28;20116;-73
2022/05/14 04:03:24;;;;;;;3.20;2.08;;;;;;;;;;5028880;28;20467;-73
2022/05/14 04:05:50;;;;;;;4.18;1.92;;;;;;;;;;5027345;28;20061;-73
2022/05/14 04:08:17;;;;;;;3.83;2.15;;;;;;;;;;5026284;28;20455;-73
2022/05/14 04:10:43;;;;;;;4.88;1.98;;;;;;;;;;5028125;28;20092;-73
2022/05/14 04:13:08;;;;;;;3.78;2.00;;;;;;;;;;5028552;28;20040;-73
2022/05/14 04:15:34;;;;;;;3.05;1.70;;;;;;;;;;5028873;28;20212;-73
2022/05/14 04:17:59;;;;;;;4.38;1.67;;;;;;;;;;5025001;28;20025;-73
2022/05/14 04:20:24;;;;;;;2.45;1.92;;;;;;;;;;5028587;28;20087;-73
2022/05/14 04:22:50;;;;;;;3.58;1.90;;;;;;;;;;5025773;28;20512;-73
2022/05/14 04:25:16;;;;;;;4.30;2.03;;;;;;;;;;5027490;28;20195;-73
2022/05/14 04:27:42;;;;;;;4.28;1.90;;;;;;;;;;5026983;28;20033;-74
2022/05/14 04:30:09;;;;;;;2.22;1.83;;;;;;;;;;5028416;28;20026;-73
2022/05/14 04:32:35;;;;;;;3.78;1.90;;;;;;;;;;5027318;28;20034;-72
2022/05/14 04:35:00;;;;;;;2.45;1.67;;;;;;;;;;5027029;28;20028;-72
2022/05/14 04:37:26;;;;;;;2.60;1.67;;;;;;;;;;5026441;28;20470;-72
2022/05/14 04:39:51;;;;;;;3.88;2.20;;;;;;;;;;5025587;28;20029;-72
2022/05/14 04:42:17;;;;;;;4.93;2.13;;;;;;;;;;5027685;28;20033;-71
2022/05/14 04:44:42;;;;;;;3.10;1.80;;;;;;;;;;5028375;28;20030;-72
2022/05/14 04:47:08;;;;;;;3.15;2.20;;;;;;;;;;5026904;28;20189;-72
2022/05/14 04:49:42;;;;;;;4.53;1.85;;;;;;;;;;5019904;28;20086;-72
2022/05/14 04:52:08;;;;;;;2.33;1.90;;;;;;;;;;5027202;28;20029;-72
2022/05/14 04:54:33;;;;;;;4.10;2.03;;;;;;;;;;5028536;28;20026;-71
2022/05/14 04:56:58;;;;;;;3.63;2.05;;;;;;;;;;5026867;28;20027;-72
2022/05/14 04:59:24;;;;;;;4.10;2.08;;;;;;;;;;5028139;28;20037;-72
2022/05/14 05:04:34;;;;;;;3.30;1.90;;;;;;;;;;5031568;28;20087;-73
2022/05/14 05:07:00;;;;;;;2.50;1.80;;;;;;;;;;5030475;28;20033;-72
2022/05/14 05:09:26;;;;;;;2.40;1.88;;;;;;;;;;5031599;28;20540;-72
2022/05/14 05:11:51;;;;;;;2.33;1.95;;;;;;;;;;5031927;28;20032;-72
2022/05/14 05:14:17;;;;;;;4.05;2.08;;;;;;;;;;5031857;28;20423;-72
2022/05/14 05:16:43;;;;;;;3.20;2.25;;;;;;;;;;5028646;28;20392;-73
2022/05/14 05:19:08;;;;;;;3.10;1.92;;;;;;;;;;5029301;28;20041;-72
2022/05/14 05:21:34;;;;;;;3.20;1.90;;;;;;;;;;5031971;28;20075;-72
2022/05/14 05:24:00;;;;;;;4.18;2.08;;;;;;;;;;5031618;28;20117;-72
2022/05/14 05:26:25;;;;;;;3.15;2.00;;;;;;;;;;5030329;28;20447;-72
2022/05/14 05:28:50;;;;;;;2.22;1.90;;;;;;;;;;5027914;28;20068;-70
2022/05/14 05:31:17;;;;;;;4.13;2.47;;;;;;;;;;5031112;28;20017;-71
2022/05/14 05:33:43;;;;;;;3.80;2.13;;;;;;;;;;5031454;28;20463;-71
2022/05/14 05:36:08;;;;;;;6.95;2.28;;;;;;;;;;5030305;28;20029;-71
2022/05/14 05:38:33;;;;;;;3.50;2.15;;;;;;;;;;5030331;28;20105;-71
2022/05/14 05:40:59;;;;;;;4.15;2.20;;;;;;;;;;5030405;28;20052;-71
2022/05/14 05:43:24;;;;;;;3.47;2.00;;;;;;;;;;5031445;28;20418;-71
2022/05/14 05:45:50;;;;;;;2.80;2.00;;;;;;;;;;5030026;28;20060;-71
2022/05/14 05:48:15;;;;;;;3.47;1.83;;;;;;;;;;5018729;28;20029;-71
2022/05/14 05:50:44;;;;;;;4.45;2.50;;;;;;;;;;5030644;28;20139;-71
2022/05/14 05:53:10;;;;;;;3.95;2.30;;;;;;;;;;5028340;28;20029;-71
2022/05/14 05:58:19;;;;;;;2.45;2.00;;;;;;;;;;5030399;28;20029;-71
2022/05/14 06:00:45;;;;;;;3.78;2.08;;;;;;;;;;5022514;28;20033;-71
2022/05/14 06:03:11;;;;;;;5.10;2.05;;;;;;;;;;5023931;28;20442;-71
2022/05/14 06:05:38;;;;;;;3.42;2.20;;;;;;;;;;5027450;28;20291;-71
2022/05/14 06:08:08;;;;;;;3.20;1.85;;;;;;;;;;5025015;28;20029;-71
2022/05/14 06:10:34;;;;;;;6.00;2.10;;;;;;;;;;5030602;28;20036;-71
2022/05/14 06:12:59;;;;;;;2.88;1.98;;;;;;;;;;5030460;28;20033;-71
2022/05/14 06:15:25;;;;;;;3.97;2.15;;;;;;;;;;5029005;28;20690;-71
2022/05/14 06:17:50;;;;;;;2.35;1.83;;;;;;;;;;5029649;28;20034;-71
2022/05/14 06:20:17;;;;;;;4.90;2.08;;;;;;;;;;5029770;28;20067;-71
2022/05/14 06:22:42;;;;;;;4.50;1.73;;;;;;;;;;5029713;28;20029;-71
2022/05/14 06:25:10;;;;;;;3.90;1.67;;;;;;;;;;5029750;28;20049;-71
2022/05/14 06:27:35;;;;;;;3.80;2.10;;;;;;;;;;5029462;28;20418;-71
2022/05/14 06:30:01;;;;;;;5.00;1.80;;;;;;;;;;5021752;28;20026;-71
2022/05/14 06:32:26;;;;;;;3.58;2.15;;;;;;;;;;5029103;28;20029;-71
2022/05/14 06:34:51;;;;;;;10.45;2.85;;;;;;;;;;5024965;28;20027;-71
2022/05/14 06:37:17;;;;;;;4.60;1.92;;;;;;;;;;5025015;28;20039;-72
2022/05/14 06:39:42;;;;;;;8.55;2.35;;;;;;;;;;5028292;28;20060;-71
2022/05/14 06:42:08;;;;;;;9.35;2.17;;;;;;;;;;5030012;28;20471;-71
2022/05/14 06:44:33;;;;;;;5.45;1.70;;;;;;;;;;5027570;28;20025;-71
2022/05/14 06:46:59;;;;;;;4.88;2.10;;;;;;;;;;5024733;28;20029;-71
2022/05/14 06:49:24;;;;;;;5.50;2.20;;;;;;;;;;5027556;28;20148;-71
2022/05/14 06:51:52;;;;;;;6.90;2.38;;;;;;;;;;5026748;28;20029;-71
2022/05/14 06:54:19;;;;;;;5.03;2.00;;;;;;;;;;5018108;28;20018;-71
2022/05/14 06:56:44;;;;;;;6.65;2.00;;;;;;;;;;5026291;28;20029;-71
2022/05/14 06:59:11;;;;;;;5.47;1.95;;;;;;;;;;5027607;28;20087;-72
2022/05/14 07:01:39;;;;;;;7.70;2.00;;;;;;;;;;5027546;28;20104;-71
2022/05/14 07:06:51;;;;;;;2.38;1.65;;;;;;;;;;5023249;28;20040;-71
2022/05/14 07:09:26;;;;;;;3.30;1.92;;;;;;;;;;5028736;28;20392;-71
2022/05/14 07:11:53;;;;;;;5.53;1.90;;;;;;;;;;5029869;28;20025;-71
2022/05/14 07:14:19;;;;;;;3.17;1.60;;;;;;;;;;5044510;28;20035;-71
2022/05/14 07:16:47;;;;;;;5.85;2.08;;;;;;;;;;5028570;28;20029;-71
2022/05/14 07:19:13;;;;;;;4.70;1.90;;;;;;;;;;5027760;28;20422;-71
2022/05/14 07:21:41;;;;;;;2.97;1.67;;;;;;;;;;5026539;28;20032;-71
2022/05/14 07:24:08;;;;;;;6.10;2.10;;;;;;;;;;5026401;28;20453;-71
2022/05/14 07:26:35;;;;;;;4.75;2.08;;;;;;;;;;5028163;28;20471;-71
2022/05/14 07:29:03;;;;;;;6.43;2.55;;;;;;;;;;5023797;28;20038;-71
2022/05/14 07:31:29;;;;;;;6.55;2.20;;;;;;;;;;5029057;28;20025;-71
2022/05/14 07:33:54;;;;;;;2.70;1.60;;;;;;;;;;5027270;28;20040;-71
2022/05/14 07:36:22;;;;;;;3.88;1.80;;;;;;;;;;5023345;28;20280;-72
2022/05/14 07:38:48;;;;;;;3.70;1.95;;;;;;;;;;5024185;28;20086;-72
2022/05/14 07:41:15;;;;;;;5.25;1.80;;;;;;;;;;5021615;28;20449;-73
2022/05/14 07:43:44;;;;;;;6.80;1.90;;;;;;;;;;5021453;28;20037;-71
2022/05/14 07:46:13;;;;;;;4.60;1.83;;;;;;;;;;5025777;28;20388;-72
2022/05/14 07:48:40;;;;;;;11.63;2.38;;;;;;;;;;5031740;28;20406;-71
2022/05/14 07:51:09;;;;;;;5.82;2.10;;;;;;;;;;5049388;28;20033;-72
2022/05/14 07:53:35;;;;;;;6.25;1.60;;;;;;;;;;5036401;28;20041;-72
2022/05/14 07:56:02;;;;;;;3.40;1.80;;;;;;;;;;5023635;28;20037;-73
2022/05/14 07:58:28;;;;;;;3.60;1.45;;;;;;;;;;5028105;28;20033;-71
2022/05/14 08:00:54;;;;;;;3.03;1.38;;;;;;;;;;5025792;28;20052;-73
2022/05/14 08:03:24;;;;;;;4.18;1.55;;;;;;;;;;5022327;28;20029;-73
2022/05/14 08:05:59;;;;;;;4.78;1.73;;;;;;;;;;5021542;28;20470;-73
2022/05/14 08:08:25;;;;;;;25.30;15.07;;;;;;;;;;5020459;28;20021;-72
2022/05/14 08:10:52;;;;;;;2.75;1.65;;;;;;;;;;5027756;28;20029;-73
2022/05/14 08:13:19;;;;;;;3.70;1.38;;;;;;;;;;5027091;28;20021;-73
2022/05/14 08:15:47;;;;;;;5.45;2.05;;;;;;;;;;5019855;28;20072;-71
2022/05/14 08:18:13;;;;;;;5.78;2.10;;;;;;;;;;5023846;28;20415;-73
2022/05/14 08:20:39;;;;;;;3.35;2.05;;;;;;;;;;5024195;28;20029;-72
2022/05/14 08:25:56;;;;;;;4.72;1.45;;;;;;;;;;5048766;28;20047;-72
2022/05/14 08:28:21;;;;;;;7.05;2.88;;;;;;;;;;5047485;28;20323;-73
2022/05/14 08:30:46;;;;;;;4.65;1.60;;;;;;;;;;5038667;28;20021;-72
2022/05/14 08:33:12;;;;;;;4.93;1.90;;;;;;;;;;5023303;28;20027;-71
2022/05/14 08:35:38;;;;;;;2.30;1.50;;;;;;;;;;5032059;28;20024;-71
2022/05/14 08:38:04;;;;;;;2.97;1.50;;;;;;;;;;5026585;28;20029;-72
2022/05/14 08:40:38;;;;;;;3.03;1.65;;;;;;;;;;5023326;28;20104;-72
2022/05/14 08:43:14;;;;;;;2.95;1.73;;;;;;;;;;5032081;28;20363;-72
2022/05/14 08:45:39;;;;;;;3.28;1.60;;;;;;;;;;5015220;28;20029;-73
2022/05/14 08:48:08;;;;;;;5.13;2.00;;;;;;;;;;5031433;28;20086;-70
2022/05/14 08:50:38;;;;;;;3.58;1.58;;;;;;;;;;5022503;28;20041;-71
2022/05/14 08:53:07;;;;;;;7.18;2.00;;;;;;;;;;5032328;28;20035;-70
2022/05/14 08:55:49;;;;;;;4.15;1.70;;;;;;;;;;5014987;28;20117;-70
2022/05/14 08:58:30;;;;;;;3.72;1.45;;;;;;;;;;5028251;28;20091;-73
2022/05/14 09:01:05;;;;;;;3.88;1.60;;;;;;;;;;5022217;28;20025;-69
2022/05/14 09:03:32;;;;;;;3.38;1.38;;;;;;;;;;5023256;28;20021;-69
2022/05/14 09:05:59;;;;;;;4.25;1.52;;;;;;;;;;5025494;28;20026;-70
2022/05/14 09:08:25;;;;;;;3.20;1.65;;;;;;;;;;5032312;28;20044;-71
2022/05/14 09:11:05;;;;;;;3.85;1.30;;;;;;;;;;5031966;28;20025;-70
2022/05/14 09:13:41;;;;;;;3.00;1.40;;;;;;;;;;5022863;28;20033;-72
2022/05/14 09:16:07;;;;;;;223.93;42.75;;;;;;;;;;5028920;28;20036;-71
2022/05/14 09:18:42;;;;;;;2.75;1.40;;;;;;;;;;5026802;28;20022;-68
2022/05/14 09:21:17;;;;;;;3.13;1.20;;;;;;;;;;5025648;28;20036;-70
2022/05/14 09:23:45;;;;;;;5.13;1.40;;;;;;;;;;5027653;28;20029;-69
2022/05/14 09:26:17;;;;;;;4.00;1.75;;;;;;;;;;5030768;28;20319;-70
2022/05/14 09:28:46;;;;;;;3.47;1.50;;;;;;;;;;5029912;28;20029;-70
2022/05/14 09:31:23;;;;;;;3.75;1.30;;;;;;;;;;5030456;28;20025;-69
2022/05/14 09:34:19;;;;;;;2.00;1.00;;;;;;;;;;5030783;28;20071;-69
2022/05/14 09:36:48;;;;;;;2.63;1.00;;;;;;;;;;5020237;28;20034;-69
2022/05/14 09:39:19;;;;;;;2.72;1.30;;;;;;;;;;5024386;28;20053;-69
2022/05/14 09:41:51;;;;;;;2.55;1.42;;;;;;;;;;5030258;28;20622;-69
2022/05/14 09:44:22;;;;;;;4.00;1.20;;;;;;;;;;5031006;28;20444;-69
2022/05/14 09:46:49;;;;;;;4.35;1.35;;;;;;;;;;5030295;28;20021;-72
2022/05/14 09:49:24;;;;;;;4.95;1.20;;;;;;;;;;5030001;28;20527;-72
2022/05/14 09:51:53;;;;;;;3.40;1.40;;;;;;;;;;5030009;28;20450;-70
2022/05/14 09:54:27;;;;;;;5.35;1.20;;;;;;;;;;5028070;28;20434;-69
2022/05/14 09:57:07;;;;;;;3.60;1.25;;;;;;;;;;5026232;28;20021;-69
2022/05/14 09:59:36;;;;;;;4.18;1.40;;;;;;;;;;5031341;28;20042;-69
2022/05/14 10:02:26;;;;;;;3.92;1.42;;;;;;;;;;5028267;28;20388;-70
2022/05/14 10:04:54;;;;;;;3.10;1.20;;;;;;;;;;5024804;28;20369;-69
2022/05/14 10:07:33;;;;;;;5.20;1.65;;;;;;;;;;5029064;28;20026;-69
2022/05/14 10:10:36;;;;;;;4.95;1.35;;;;;;;;;;5030427;28;20114;-69
2022/05/14 10:13:13;;;;;;;2.63;1.50;;;;;;;;;;5028940;28;20021;-69
2022/05/14 10:15:59;;;;;;;3.88;1.15;;;;;;;;;;5029801;28;20025;-69
2022/05/14 10:19:03;;;;;;;4.20;1.10;;;;;;;;;;5024638;28;20798;-69
2022/05/14 10:21:37;;;;;;;2.45;1.08;;;;;;;;;;5006256;28;20033;-69
2022/05/14 10:27:36;;;;;;;3.22;1.10;;;;;;;;;;5027754;28;20449;-69
2022/05/14 10:30:21;;;;;;;2.17;1.15;;;;;;;;;;5026121;28;20502;-72
2022/05/14 10:32:52;;;;;;;2.67;1.30;;;;;;;;;;5017486;28;20022;-68
2022/05/14 10:35:21;;;;;;;;;;;;;;;;;;5029476;28;20358;-69
2022/05/14 10:38:01;;;;;;;6.43;1.45;;;;;;;;;;5030909;28;19924;-69
2022/05/14 10:40:36;;;;;;;2.80;1.13;;;;;;;;;;5030383;28;20387;-69
2022/05/14 10:43:32;;;;;;;4.68;1.27;;;;;;;;;;5028692;28;20500;-69
2022/05/14 10:45:58;;;;;;;2.03;1.13;;;;;;;;;;5026801;28;20040;-71
2022/05/14 10:48:46;;;;;;;3.05;1.27;;;;;;;;;;5028847;28;20116;-68
2022/05/14 10:51:19;;;;;;;4.28;1.17;;;;;;;;;;5027511;28;20025;-69
2022/05/14 10:53:44;;;;;;;2.67;1.17;;;;;;;;;;5029104;28;20033;-70
2022/05/14 10:56:14;;;;;;;2.83;0.95;;;;;;;;;;5030484;28;20047;-70
2022/05/14 10:58:45;;;;;;;2.80;1.30;;;;;;;;;;5029883;28;20025;-71
2022/05/14 11:01:31;;;;;;;2.92;1.10;;;;;;;;;;5023302;28;20025;-68
2022/05/14 11:03:59;;;;;;;3.45;1.20;;;;;;;;;;5026705;28;20045;-70
2022/05/14 11:06:31;;;;;;;2.85;0.93;;;;;;;;;;5020359;28;20504;-70
2022/05/14 11:08:56;;;;;;;2.40;1.10;;;;;;;;;;5030019;28;20041;-71
2022/05/14 11:11:27;;;;;;;1.87;1.00;;;;;;;;;;5029996;28;20083;-69
2022/05/14 11:14:06;;;;;;;2.08;1.10;;;;;;;;;;5030080;28;20253;-68
2022/05/14 11:16:41;;;;;;;3.17;1.40;;;;;;;;;;5028728;28;20033;-71
2022/05/14 11:19:07;;;;;;;3.13;1.25;;;;;;;;;;5028541;28;20360;-69
2022/05/14 11:21:42;;;;;;;2.28;0.93;;;;;;;;;;5028830;28;20383;-70
2022/05/14 11:24:11;;;;;;;3.15;1.10;;;;;;;;;;5022717;28;20120;-68
2022/05/14 11:26:45;;;;;;;2.45;1.27;;;;;;;;;;5026768;28;20479;-68
2022/05/14 11:29:15;;;;;;;2.85;1.52;;;;;;;;;;5029067;28;20188;-69
2022/05/14 11:32:03;;;;;;;3.58;1.20;;;;;;;;;;5021767;28;20018;-70
2022/05/14 11:34:29;;;;;;;5.72;1.35;;;;;;;;;;5021739;28;20022;-69
2022/05/14 11:36:58;;;;;;;2.72;1.23;;;;;;;;;;5016784;28;20209;-69
2022/05/14 11:39:28;;;;;;;3.20;1.20;;;;;;;;;;5027187;28;20037;-69
2022/05/14 11:42:06;;;;;;;3.72;1.20;;;;;;;;;;5022045;28;20083;-71
2022/05/14 11:44:44;;;;;;;1.88;0.98;;;;;;;;;;5028715;28;20112;-70
2022/05/14 11:47:32;;;;;;;2.63;1.10;;;;;;;;;;5028029;28;20025;-71
2022/05/14 11:50:00;;;;;;;2.85;1.15;;;;;;;;;;5027217;28;20121;-70
2022/05/14 11:52:36;;;;;;;2.63;1.10;;;;;;;;;;5028545;28;20112;-70
2022/05/14 11:55:18;;;;;;;3.25;1.20;;;;;;;;;;5027762;28;20029;-69
2022/05/14 11:58:11;;;;;;;3.00;1.20;;;;;;;;;;5024968;28;20087;-68
2022/05/14 12:00:37;;;;;;;4.68;1.35;;;;;;;;;;5014860;28;20044;-68
2022/05/14 12:03:28;;;;;;;3.13;1.25;;;;;;;;;;5022633;28;20096;-70
2022/05/14 12:06:33;;;;;;;2.80;1.52;;;;;;;;;;5020565;28;20030;-71
2022/05/14 12:09:10;;;;;;;2.30;1.20;;;;;;;;;;5008184;28;20124;-70
2022/05/14 12:11:47;;;;;;;3.75;1.10;;;;;;;;;;5021262;28;20040;-70
2022/05/14 12:14:26;;;;;;;2.58;1.27;;;;;;;;;;5022926;28;20071;-70
2022/05/14 12:16:58;;;;;;;3.33;1.13;;;;;;;;;;5023349;28;20367;-70
2022/05/14 12:19:31;;;;;;;6.32;3.22;;;;;;;;;;5028707;28;20032;-70
2022/05/14 12:22:03;;;;;;;5.95;3.28;;;;;;;;;;5021041;28;20439;-70
2022/05/14 12:24:32;;;;;;;2.53;1.25;;;;;;;;;;5027352;28;20041;-70
2022/05/14 12:26:58;;;;;;;3.75;1.25;;;;;;;;;;5026582;28;20017;-70
2022/05/14 12:29:28;;;;;;;2.58;1.48;;;;;;;;;;5027217;28;20040;-69
2022/05/14 12:34:44;;;;;;;1.83;1.38;;;;;;;;;;5028831;28;20036;-69
2022/05/14 12:37:23;;;;;;;3.35;1.58;;;;;;;;;;5027268;28;20021;-70
2022/05/14 12:39:51;;;;;;;4.15;1.40;;;;;;;;;;5023953;28;20033;-72
2022/05/14 12:42:22;;;;;;;3.80;1.48;;;;;;;;;;5028926;28;20052;-72
2022/05/14 12:44:48;;;;;;;2.30;1.23;;;;;;;;;;5027032;28;20026;-69
2022/05/14 12:47:25;;;;;;;2.80;1.13;;;;;;;;;;5027113;28;20037;-70
2022/05/14 12:49:51;;;;;;;3.22;1.48;;;;;;;;;;5015410;28;20030;-69
2022/05/14 12:52:24;;;;;;;4.68;1.40;;;;;;;;;;5023939;28;20145;-71
2022/05/14 12:54:58;;;;;;;3.80;1.42;;;;;;;;;;5017567;28;20423;-69
2022/05/14 12:57:26;;;;;;;2.08;1.30;;;;;;;;;;5027034;28;20028;-71
2022/05/14 12:59:53;;;;;;;2.67;1.55;;;;;;;;;;5021013;28;20026;-70
2022/05/14 13:02:31;;;;;;;3.03;1.25;;;;;;;;;;5025618;28;20095;-70
2022/05/14 13:05:09;;;;;;;2.40;1.48;;;;;;;;;;5028178;28;20537;-69
2022/05/14 13:07:45;;;;;;;5.43;1.15;;;;;;;;;;5028303;28;20025;-70
2022/05/14 13:10:10;;;;;;;3.65;1.10;;;;;;;;;;5022069;28;20076;-70
2022/05/14 13:12:36;;;;;;;1.92;1.10;;;;;;;;;;5028192;28;20029;-70
2022/05/14 13:15:04;;;;;;;5.43;1.10;;;;;;;;;;5027301;28;20018;-69
2022/05/14 13:17:31;;;;;;;1.50;0.98;;;;;;;;;;5027940;28;20029;-69
2022/05/14 13:19:58;;;;;;;2.17;1.30;;;;;;;;;;5018828;28;20032;-70
2022/05/14 13:22:40;;;;;;;3.20;1.38;;;;;;;;;;5023375;28;20033;-69
2022/05/14 13:25:23;;;;;;;4.97;1.15;;;;;;;;;;5030479;28;20434;-69
2022/05/14 13:27:48;;;;;;;2.33;0.95;;;;;;;;;;5031409;28;20021;-69
2022/05/14 13:30:16;;;;;;;1.48;1.30;;;;;;;;;;5031143;28;20025;-71
2022/05/14 13:32:41;;;;;;;2.88;1.10;;;;;;;;;;5023102;28;20108;-70
2022/05/14 13:38:07;;;;;;;2.13;1.15;;;;;;;;;;5013579;28;20057;-70
2022/05/14 13:40:42;;;;;;;3.30;1.00;;;;;;;;;;5013909;28;20424;-70
2022/05/14 13:43:19;;;;;;;2.90;1.10;;;;;;;;;;5016108;28;20090;-71
2022/05/14 13:45:58;;;;;;;4.05;1.33;;;;;;;;;;5028886;28;20064;-69
2022/05/14 13:48:32;;;;;;;2.67;1.10;;;;;;;;;;5025165;28;20130;-69
2022/05/14 13:51:02;;;;;;;2.08;1.08;;;;;;;;;;5026598;28;20020;-72
2022/05/14 13:53:34;;;;;;;2.85;1.38;;;;;;;;;;5029281;28;20033;-70
2022/05/14 13:56:04;;;;;;;2.72;1.05;;;;;;;;;;5030047;28;20475;-72
2022/05/14 13:58:32;;;;;;;2.88;1.00;;;;;;;;;;5029826;28;20474;-70
2022/05/14 14:01:02;;;;;;;4.25;1.25;;;;;;;;;;5026003;28;20501;-71
2022/05/14 14:03:41;;;;;;;3.03;1.50;;;;;;;;;;5021726;28;20120;-69
2022/05/14 14:06:08;;;;;;;5.03;1.45;;;;;;;;;;5026057;28;20040;-69
2022/05/14 14:08:33;;;;;;;3.05;0.90;;;;;;;;;;5030329;28;20044;-71
2022/05/14 14:10:59;;;;;;;1.60;1.08;;;;;;;;;;5029386;28;20021;-71
2022/05/14 14:13:24;;;;;;;2.95;1.05;;;;;;;;;;5029251;28;20040;-71
2022/05/14 14:15:50;;;;;;;3.55;1.17;;;;;;;;;;5029102;28;20078;-70
2022/05/14 14:18:15;;;;;;;3.17;1.00;;;;;;;;;;5031014;28;20033;-71
2022/05/14 14:20:44;;;;;;;2.08;1.05;;;;;;;;;;5030687;28;20025;-70
2022/05/14 14:23:13;;;;;;;1.88;1.10;;;;;;;;;;5030484;28;20074;-71
2022/05/14 14:25:40;;;;;;;1.63;1.05;;;;;;;;;;5028392;28;20379;-72
2022/05/14 14:28:08;;;;;;;3.10;1.10;;;;;;;;;;5027902;28;20167;-69
2022/05/14 14:30:33;;;;;;;4.05;1.10;;;;;;;;;;5021678;28;20506;-71
2022/05/14 14:32:59;;;;;;;3.35;1.48;;;;;;;;;;5029567;28;20025;-71
2022/05/14 14:35:24;;;;;;;5.47;1.10;;;;;;;;;;5030372;28;20036;-71
2022/05/14 14:37:49;;;;;;;3.08;0.90;;;;;;;;;;5030394;28;20025;-72
2022/05/14 14:40:15;;;;;;;6.05;1.20;;;;;;;;;;5030064;28;20029;-70
2022/05/14 14:42:41;;;;;;;3.95;1.10;;;;;;;;;;5027827;28;20120;-72
2022/05/14 14:45:11;;;;;;;3.08;1.20;;;;;;;;;;5030098;28;20044;-70
2022/05/14 14:47:38;;;;;;;3.05;0.90;;;;;;;;;;5030333;28;20116;-72
2022/05/14 14:50:04;;;;;;;4.30;1.27;;;;;;;;;;5029301;28;20545;-69
2022/05/14 14:52:29;;;;;;;2.97;1.20;;;;;;;;;;5030063;28;20025;-70
2022/05/14 14:54:54;;;;;;;3.63;1.10;;;;;;;;;;5029231;28;20394;-72
2022/05/14 14:57:19;;;;;;;2.53;1.10;;;;;;;;;;5029171;28;20041;-71
2022/05/14 14:59:45;;;;;;;2.13;0.93;;;;;;;;;;5029365;28;20087;-72
2022/05/14 15:02:16;;;;;;;5.00;1.10;;;;;;;;;;5030716;28;20453;-70
2022/05/14 15:04:45;;;;;;;2.22;1.00;;;;;;;;;;5030148;28;20036;-69
2022/05/14 15:07:11;;;;;;;4.00;1.45;;;;;;;;;;5030029;28;20029;-72
2022/05/14 15:09:38;;;;;;;3.30;1.20;;;;;;;;;;5024557;28;20407;-71
2022/05/14 15:12:04;;;;;;;1.30;1.10;;;;;;;;;;5027761;28;20022;-71
2022/05/14 15:14:31;;;;;;;2.80;1.10;;;;;;;;;;5025864;28;20108;-71
2022/05/14 15:16:56;;;;;;;4.68;1.20;;;;;;;;;;5028134;28;20025;-71
2022/05/14 15:19:22;;;;;;;3.65;1.20;;;;;;;;;;5028701;28;20034;-71
2022/05/14 15:21:47;;;;;;;2.22;1.10;;;;;;;;;;5039148;28;20037;-71